createdAt,value
2022-12-20T00:03:53.729Z,1020.08
2022-12-20T00:08:52.067Z,1020.10
2022-12-20T00:13:51.391Z,1020.05
2022-12-20T00:18:50.514Z,1019.96
2022-12-20T00:23:50.819Z,1019.99
2022-12-20T00:28:50.129Z,1020.06
2022-12-20T00:33:48.456Z,1019.95
2022-12-20T00:38:47.768Z,1020.03
2022-12-20T00:43:48.093Z,1019.97
2022-12-20T00:48:45.372Z,1020.03
2022-12-20T00:53:46.666Z,1020.14
2022-12-20T00:58:44.981Z,1019.92
2022-12-20T01:03:44.327Z,1019.90
2022-12-20T01:08:43.441Z,1019.81
2022-12-20T01:13:42.749Z,1019.85
2022-12-20T01:18:41.050Z,1020.07
2022-12-20T01:23:41.383Z,1020.10
2022-12-20T01:28:40.769Z,1020.01
2022-12-20T01:33:40.962Z,1019.87
2022-12-20T01:38:39.059Z,1020.06
2022-12-20T01:43:39.260Z,1020.15
2022-12-20T01:48:37.440Z,1019.94
2022-12-20T01:53:36.596Z,1019.89
2022-12-20T01:58:36.805Z,1019.95
2022-12-20T02:03:35.008Z,1019.81
2022-12-20T02:08:34.196Z,1019.67
2022-12-20T02:13:35.332Z,1019.77
2022-12-20T02:18:32.637Z,1019.86
2022-12-20T02:23:31.974Z,1019.70
2022-12-20T02:28:30.183Z,1019.79
2022-12-20T02:33:30.368Z,1019.60
2022-12-20T02:38:29.506Z,1019.64
2022-12-20T02:43:29.676Z,1019.66
2022-12-20T02:48:28.788Z,1019.77
2022-12-20T02:53:27.136Z,1019.85
2022-12-20T02:58:27.260Z,1019.85
2022-12-20T03:03:25.705Z,1019.73
2022-12-20T03:08:24.885Z,1019.56
2022-12-20T03:13:25.209Z,1019.67
2022-12-20T03:18:24.350Z,1019.65
2022-12-20T03:23:22.693Z,1019.72
2022-12-20T03:28:21.844Z,1019.72
2022-12-20T03:33:21.169Z,1019.54
2022-12-20T03:38:20.518Z,1019.47
2022-12-20T03:43:20.646Z,1019.29
2022-12-20T03:48:18.956Z,1019.48
2022-12-20T03:53:19.261Z,1019.40
2022-12-20T03:58:17.591Z,1019.37
2022-12-20T04:03:17.083Z,1019.31
2022-12-20T04:08:16.051Z,1019.37
2022-12-20T04:13:15.362Z,1019.44
2022-12-20T04:18:15.652Z,1019.37
2022-12-20T04:23:14.967Z,1019.25
2022-12-20T04:28:13.281Z,1019.14
2022-12-20T04:33:12.664Z,1019.12
2022-12-20T04:38:11.795Z,1019.02
2022-12-20T04:43:12.123Z,1019.08
2022-12-20T04:48:46.276Z,1019.04
2022-12-20T04:53:10.580Z,1018.84
2022-12-20T04:58:09.892Z,1018.84
2022-12-20T05:03:09.343Z,1018.85
2022-12-20T05:08:07.537Z,1018.78
2022-12-20T05:13:09.466Z,1018.77
2022-12-20T05:18:05.909Z,1018.64
2022-12-20T05:23:05.236Z,1018.63
2022-12-20T05:28:04.546Z,1018.70
2022-12-20T05:33:05.689Z,1018.59
2022-12-20T05:38:04.005Z,1018.69
2022-12-20T05:43:02.331Z,1018.65
2022-12-20T05:48:01.449Z,1018.72
2022-12-20T05:53:04.632Z,1018.51
2022-12-20T05:58:00.032Z,1018.39
2022-12-20T06:03:00.371Z,1018.59
2022-12-20T06:07:59.383Z,1018.58
2022-12-20T06:12:57.706Z,1018.28
2022-12-20T06:17:57.856Z,1018.47
2022-12-20T06:22:57.248Z,1018.40
2022-12-20T06:27:56.377Z,1018.22
2022-12-20T06:32:54.515Z,1018.27
2022-12-20T06:37:54.842Z,1018.40
2022-12-20T06:42:54.202Z,1018.43
2022-12-20T06:47:52.330Z,1018.43
2022-12-20T06:52:52.495Z,1018.21
2022-12-20T06:57:51.628Z,1018.17
2022-12-20T07:02:51.080Z,1018.15
2022-12-20T07:07:49.079Z,1018.18
2022-12-20T07:12:48.762Z,1018.06
2022-12-20T07:17:47.547Z,1018.22
2022-12-20T07:22:46.886Z,1018.33
2022-12-20T07:27:45.077Z,1018.26
2022-12-20T07:32:46.259Z,1018.28
2022-12-20T07:37:44.432Z,1018.24
2022-12-20T07:42:48.458Z,1018.16
2022-12-20T07:47:42.810Z,1018.06
2022-12-20T07:52:42.076Z,1018.11
2022-12-20T07:57:41.378Z,1018.32
2022-12-20T08:02:41.810Z,1018.23
2022-12-20T08:07:39.889Z,1018.13
2022-12-20T08:12:39.023Z,1018.16
2022-12-20T08:17:38.187Z,1018.27
2022-12-20T08:22:37.435Z,1018.27
2022-12-20T08:27:36.554Z,1018.12
2022-12-20T08:32:34.913Z,1018.23
2022-12-20T08:37:35.046Z,1018.27
2022-12-20T08:42:35.420Z,1018.15
2022-12-20T08:47:33.497Z,1017.98
2022-12-20T08:52:32.893Z,1018.09
2022-12-20T08:57:32.037Z,1018.14
2022-12-20T09:02:31.230Z,1017.99
2022-12-20T09:07:30.410Z,1017.97
2022-12-20T09:12:30.728Z,1017.95
2022-12-20T09:17:29.002Z,1017.83
2022-12-20T09:22:28.334Z,1017.68
2022-12-20T09:27:29.674Z,1017.65
2022-12-20T09:32:27.973Z,1017.66
2022-12-20T09:37:25.301Z,1017.63
2022-12-20T09:42:25.489Z,1017.50
2022-12-20T09:47:25.609Z,1017.70
2022-12-20T09:52:24.928Z,1017.62
2022-12-20T09:57:24.223Z,1017.57
2022-12-20T10:07:22.731Z,1017.44
2022-12-20T10:12:22.048Z,1017.43
2022-12-20T10:17:21.362Z,1017.28
2022-12-20T10:22:20.665Z,1017.19
2022-12-20T10:27:18.984Z,1017.20
2022-12-20T10:32:18.287Z,1017.16
2022-12-20T10:37:18.611Z,1017.21
2022-12-20T10:42:17.951Z,1017.13
2022-12-20T10:47:16.060Z,1017.07
2022-12-20T10:52:17.376Z,1017.05
2022-12-20T10:57:15.131Z,1016.89
2022-12-20T11:02:16.150Z,1016.66
2022-12-20T11:07:12.166Z,1016.72
2022-12-20T11:12:12.492Z,1016.62
2022-12-20T11:17:12.632Z,1016.37
2022-12-20T11:22:10.771Z,1016.48
2022-12-20T11:27:15.427Z,1016.46
2022-12-20T11:32:09.178Z,1016.41
2022-12-20T11:37:09.352Z,1016.30
2022-12-20T11:42:07.474Z,1016.12
2022-12-20T11:47:06.682Z,1016.04
2022-12-20T11:52:06.890Z,1015.98
2022-12-20T11:57:05.020Z,1015.91
2022-12-20T12:02:05.399Z,1015.66
2022-12-20T12:07:02.615Z,1015.53
2022-12-20T12:12:07.209Z,1015.40
2022-12-20T12:17:02.044Z,1015.33
2022-12-20T12:22:03.134Z,1015.18
2022-12-20T12:27:02.463Z,1015.19
2022-12-20T12:32:00.790Z,1015.20
2022-12-20T12:37:00.987Z,1015.08
2022-12-20T12:41:58.278Z,1015.01
2022-12-20T12:46:57.625Z,1015.10
2022-12-20T12:51:57.763Z,1015.02
2022-12-20T12:56:57.070Z,1015.08
2022-12-20T13:01:55.517Z,1015.03
2022-12-20T13:06:55.754Z,1015.04
2022-12-20T13:12:01.085Z,1015.03
2022-12-20T13:17:26.135Z,1014.99
2022-12-20T13:21:52.232Z,1015.17
2022-12-20T13:26:52.538Z,1015.13
2022-12-20T13:31:54.374Z,1015.28
2022-12-20T13:36:50.064Z,1015.25
2022-12-20T13:41:50.364Z,1015.20
2022-12-20T13:46:48.696Z,1015.11
2022-12-20T13:51:48.046Z,1015.20
2022-12-20T13:56:47.174Z,1015.33
2022-12-20T14:01:46.678Z,1015.49
2022-12-20T14:06:46.737Z,1015.46
2022-12-20T14:11:46.046Z,1015.38
2022-12-20T14:16:44.440Z,1015.40
2022-12-20T14:21:45.613Z,1015.42
2022-12-20T14:26:42.708Z,1015.36
2022-12-20T14:31:41.081Z,1015.30
2022-12-20T14:36:41.191Z,1015.42
2022-12-20T14:41:40.564Z,1015.50
2022-12-20T14:46:45.214Z,1015.57
2022-12-20T14:51:39.866Z,1015.47
2022-12-20T14:56:38.993Z,1015.41
2022-12-20T15:01:43.602Z,1015.21
2022-12-20T15:06:36.530Z,1015.16
2022-12-20T15:11:35.788Z,1015.12
2022-12-20T15:16:35.016Z,1015.20
2022-12-20T15:21:35.189Z,1015.11
2022-12-20T15:26:35.551Z,1015.13
2022-12-20T15:31:34.131Z,1015.00
2022-12-20T15:36:32.025Z,1014.99
2022-12-20T15:41:32.322Z,1014.99
2022-12-20T15:46:32.622Z,1015.01
2022-12-20T15:51:29.900Z,1014.88
2022-12-20T15:56:31.199Z,1014.85
2022-12-20T16:01:29.143Z,1014.94
2022-12-20T16:06:27.830Z,1014.81
2022-12-20T16:11:27.127Z,1014.72
2022-12-20T16:16:27.472Z,1014.72
2022-12-20T16:21:26.697Z,1014.80
2022-12-20T16:26:25.820Z,1014.87
2022-12-20T16:31:24.197Z,1015.03
2022-12-20T16:36:25.331Z,1015.02
2022-12-20T16:41:24.649Z,1014.82
2022-12-20T16:46:23.033Z,1014.87
2022-12-20T16:51:20.187Z,1014.81
2022-12-20T16:56:20.525Z,1015.02
2022-12-20T17:01:21.945Z,1014.92
2022-12-20T17:06:20.012Z,1014.68
2022-12-20T17:11:18.315Z,1014.74
2022-12-20T17:16:17.675Z,1014.65
2022-12-20T17:21:16.814Z,1014.84
2022-12-20T17:26:17.141Z,1014.94
2022-12-20T17:31:15.495Z,1014.61
2022-12-20T17:36:15.622Z,1014.47
2022-12-20T17:41:13.959Z,1014.50
2022-12-20T17:46:13.111Z,1014.50
2022-12-20T17:51:11.263Z,1014.44
2022-12-20T17:56:15.519Z,1014.51
2022-12-20T18:01:10.672Z,1014.39
2022-12-20T18:06:09.849Z,1014.43
2022-12-20T18:11:10.195Z,1014.18
2022-12-20T18:16:08.432Z,1014.20
2022-12-20T18:21:07.651Z,1014.13
2022-12-20T18:26:07.814Z,1014.09
2022-12-20T18:31:06.948Z,1014.12
2022-12-20T18:36:05.113Z,1014.26
2022-12-20T18:41:04.269Z,1014.37
2022-12-20T18:46:02.509Z,1014.17
2022-12-20T18:51:03.673Z,1014.13
2022-12-20T18:56:04.025Z,1014.13
2022-12-20T19:01:01.480Z,1013.99
2022-12-20T19:06:01.288Z,1014.06
2022-12-20T19:10:59.913Z,1014.07
2022-12-20T19:15:59.926Z,1014.02
2022-12-20T19:21:00.046Z,1013.94
2022-12-20T19:26:04.580Z,1013.93
2022-12-20T19:30:56.832Z,1013.61
2022-12-20T19:35:56.825Z,1013.56
2022-12-20T19:40:55.221Z,1013.49
2022-12-20T19:45:53.888Z,1013.40
2022-12-20T19:50:55.937Z,1013.33
2022-12-20T19:55:52.895Z,1013.36
2022-12-20T20:00:51.180Z,1013.39
2022-12-20T20:05:52.742Z,1013.23
2022-12-20T20:10:51.988Z,1013.43
2022-12-20T20:15:51.246Z,1013.61
2022-12-20T20:20:51.267Z,1013.48
2022-12-20T20:25:48.578Z,1013.68
2022-12-20T20:30:46.989Z,1013.59
2022-12-20T20:35:53.517Z,1013.63
2022-12-20T20:40:47.610Z,1013.53
2022-12-20T20:45:45.740Z,1013.51
2022-12-20T20:50:44.893Z,1013.51
2022-12-20T20:55:45.038Z,1013.62
2022-12-20T21:00:43.257Z,1013.57
2022-12-20T21:10:43.862Z,1013.57
2022-12-20T21:15:41.100Z,1013.63
2022-12-20T21:20:40.128Z,1013.69
2022-12-20T21:25:39.307Z,1013.61
2022-12-20T21:30:39.531Z,1013.58
2022-12-20T21:35:37.735Z,1013.54
2022-12-20T21:40:36.927Z,1013.60
2022-12-20T21:45:37.092Z,1013.62
2022-12-20T21:50:35.262Z,1013.74
2022-12-20T21:55:35.444Z,1013.71
2022-12-20T22:00:34.707Z,1013.68
2022-12-20T22:05:34.745Z,1013.80
2022-12-20T22:10:31.910Z,1013.90
2022-12-20T22:15:31.114Z,1013.82
2022-12-20T22:20:31.288Z,1013.71
2022-12-20T22:25:29.444Z,1013.81
2022-12-20T22:30:28.607Z,1013.85
2022-12-20T22:35:26.799Z,1013.89
2022-12-20T22:40:27.998Z,1013.88
2022-12-20T22:45:26.191Z,1013.95
2022-12-20T22:50:25.364Z,1014.05
2022-12-20T22:55:24.500Z,1014.04
2022-12-20T23:00:24.878Z,1014.01
2022-12-20T23:05:23.055Z,1013.93
2022-12-20T23:10:22.231Z,1013.89
2022-12-20T23:15:22.399Z,1013.90
2022-12-20T23:20:21.539Z,1013.97
2022-12-20T23:25:19.684Z,1013.81
2022-12-20T23:30:18.859Z,1013.78
2022-12-20T23:35:18.026Z,1013.77
2022-12-20T23:40:18.177Z,1013.76
2022-12-20T23:45:17.322Z,1013.80
2022-12-20T23:50:16.687Z,1013.73
2022-12-20T23:55:14.834Z,1013.65
